Time;durP1;ratioP1;P1;durP2;ratioP2;P2;SDS_P1;SDS_P2;PMS_P1;PMS_P2;Temp;Humidity;BMP_temperature;BMP_pressure;BME280_temperature;BME280_humidity;BME280_pressure;Samples;Min_cycle;Max_cycle;Signal;HPM_P1;HPM_P2
2022/11/07 00:00:27;;;;;;;5.43;2.92;;;;;;;9.76;95.22;100012.78;5159103;28;20105;-77
2022/11/07 00:02:58;;;;;;;4.90;2.95;;;;;;;9.67;95.09;100004.50;5159759;28;20042;-77
2022/11/07 00:05:28;;;;;;;5.13;3.15;;;;;;;9.63;95.59;100000.31;5158576;28;20427;-77
2022/11/07 00:07:58;;;;;;;5.45;2.97;;;;;;;9.55;95.84;100018.03;5159964;28;20158;-77
2022/11/07 00:10:28;;;;;;;5.43;3.10;;;;;;;9.58;96.23;100010.06;5160479;28;20032;-76
2022/11/07 00:12:59;;;;;;;4.18;2.80;;;;;;;9.52;96.22;100015.53;5160326;28;20477;-77
2022/11/07 00:15:29;;;;;;;5.10;3.10;;;;;;;9.42;97.18;100008.97;5159641;28;20031;-77
2022/11/07 00:17:59;;;;;;;5.55;3.38;;;;;;;9.39;97.40;100014.31;5159335;28;20285;-77
2022/11/07 00:20:29;;;;;;;5.93;3.47;;;;;;;9.30;97.59;100020.75;5158582;28;20034;-77
2022/11/07 00:23:00;;;;;;;4.18;3.00;;;;;;;9.41;98.23;100020.31;5159025;28;20036;-77
2022/11/07 00:25:30;;;;;;;5.65;3.35;;;;;;;9.33;98.39;100028.44;5158957;28;20088;-77
2022/11/07 00:28:00;;;;;;;6.45;3.50;;;;;;;9.26;99.36;100044.38;5157545;28;20030;-76
2022/11/07 00:30:31;;;;;;;4.75;3.30;;;;;;;9.33;98.32;100038.03;5159172;28;20081;-77
2022/11/07 00:33:01;;;;;;;4.75;3.00;;;;;;;9.30;98.60;100030.34;5159594;28;20034;-77
2022/11/07 00:35:32;;;;;;;5.38;3.30;;;;;;;9.22;98.74;100029.78;5159434;28;20023;-77
2022/11/07 00:38:02;;;;;;;5.70;3.22;;;;;;;9.19;98.99;100012.53;5157132;28;20400;-77
2022/11/07 00:40:32;;;;;;;6.93;3.20;;;;;;;9.13;99.82;100015.34;5158142;28;20404;-77
2022/11/07 00:43:03;;;;;;;5.87;3.10;;;;;;;9.13;99.29;100022.34;5159714;28;20030;-77
2022/11/07 00:45:33;;;;;;;5.80;3.13;;;;;;;9.13;99.75;100029.28;5158919;28;20364;-77
2022/11/07 00:48:03;;;;;;;5.95;3.60;;;;;;;9.07;100.00;100022.53;5159462;28;20038;-77
2022/11/07 00:50:34;;;;;;;8.32;3.58;;;;;;;9.05;100.00;100020.94;5159480;28;20109;-76
2022/11/07 00:53:04;;;;;;;5.95;3.17;;;;;;;9.04;100.00;100032.25;5158011;28;20057;-77
2022/11/07 00:55:34;;;;;;;6.00;3.35;;;;;;;9.05;100.00;100040.00;5159229;28;20030;-77
2022/11/07 00:58:05;;;;;;;4.65;3.00;;;;;;;9.12;100.00;100035.41;5159529;28;20105;-77
2022/11/07 01:00:36;;;;;;;4.43;2.95;;;;;;;9.09;100.00;100038.13;5159770;28;20042;-76
2022/11/07 01:05:57;;;;;;;5.18;3.05;;;;;;;9.17;100.00;100039.53;5159751;28;20041;-77
2022/11/07 01:08:29;;;;;;;5.07;2.90;;;;;;;9.17;100.00;100048.19;5158702;28;20030;-77
2022/11/07 01:11:03;;;;;;;5.80;3.58;;;;;;;9.23;100.00;100040.16;5159496;28;20120;-77
2022/11/07 01:13:34;;;;;;;4.85;3.00;;;;;;;9.28;100.00;100047.81;5156372;28;20494;-77
2022/11/07 01:16:08;;;;;;;6.53;3.08;;;;;;;9.23;100.00;100052.34;5158375;28;20480;-76
2022/11/07 01:18:38;;;;;;;6.22;2.85;;;;;;;9.41;100.00;100046.41;5159218;28;20113;-77
2022/11/07 01:21:09;;;;;;;4.88;2.72;;;;;;;9.49;100.00;100049.56;5159369;28;20126;-77
2022/11/07 01:23:40;;;;;;;5.35;3.00;;;;;;;9.50;100.00;100048.66;5158949;28;20030;-77
2022/11/07 01:26:11;;;;;;;7.00;2.97;;;;;;;9.57;100.00;100050.09;5157768;28;20385;-77
2022/11/07 01:28:42;;;;;;;6.22;2.60;;;;;;;9.59;100.00;100046.53;5158615;28;20042;-77
2022/11/07 01:31:14;;;;;;;6.10;2.40;;;;;;;9.69;100.00;100044.41;5152350;28;20026;-77
2022/11/07 01:33:45;;;;;;;3.88;2.42;;;;;;;9.62;100.00;100045.56;5154150;28;20081;-77
2022/11/07 01:36:17;;;;;;;4.90;2.78;;;;;;;9.62;100.00;100043.81;5157423;28;20038;-77
2022/11/07 01:38:47;;;;;;;5.05;2.65;;;;;;;9.67;99.88;100044.44;5157129;28;20369;-77
2022/11/07 01:41:25;;;;;;;5.20;2.38;;;;;;;9.64;99.96;100041.97;5159648;28;20036;-77
2022/11/07 01:44:21;;;;;;;6.65;2.78;;;;;;;9.74;99.65;100042.44;5159588;28;20147;-77
2022/11/07 01:46:56;;;;;;;6.00;2.83;;;;;;;9.68;100.00;100046.16;5143316;28;20046;-77
2022/11/07 01:49:34;;;;;;;5.78;2.60;;;;;;;9.66;100.00;100052.38;5159054;28;20037;-77
2022/11/07 01:52:13;;;;;;;5.80;2.67;;;;;;;9.66;100.00;100055.81;5154735;28;20030;-77
2022/11/07 01:54:58;;;;;;;7.32;2.72;;;;;;;9.65;100.00;100054.09;5158698;28;20033;-77
2022/11/07 01:57:40;;;;;;;5.13;2.20;;;;;;;9.63;99.93;100057.72;5161380;28;20030;-77
2022/11/07 02:00:15;;;;;;;5.00;2.22;;;;;;;9.69;100.00;100047.00;5162079;28;20381;-77
2022/11/07 02:02:49;;;;;;;4.05;2.08;;;;;;;9.70;100.00;100041.75;5162588;28;20037;-77
2022/11/07 02:05:28;;;;;;;4.50;2.20;;;;;;;9.64;100.00;100041.16;5162289;28;20033;-77
2022/11/07 02:08:01;;;;;;;4.88;2.38;;;;;;;9.59;100.00;100045.66;5161877;28;20044;-76
2022/11/07 02:10:34;;;;;;;5.38;2.40;;;;;;;9.63;100.00;100053.31;5160456;28;20034;-77
2022/11/07 02:13:06;;;;;;;6.57;2.65;;;;;;;9.67;100.00;100051.44;5162669;28;20038;-77
2022/11/07 02:15:36;;;;;;;4.35;2.20;;;;;;;9.67;100.00;100057.50;5161949;28;20018;-77
2022/11/07 02:18:06;;;;;;;5.07;2.40;;;;;;;9.62;100.00;100064.66;5160515;28;20026;-74
2022/11/07 02:20:36;;;;;;;4.65;2.20;;;;;;;9.57;100.00;100055.31;5162137;28;20513;-77
2022/11/07 02:23:25;;;;;;;4.78;2.17;;;;;;;9.66;100.00;100061.03;5161761;28;20279;-76
2022/11/07 02:25:55;;;;;;;6.00;2.30;;;;;;;9.65;100.00;100063.72;5161379;28;20069;-77
2022/11/07 02:28:28;;;;;;;4.78;2.10;;;;;;;9.58;100.00;100067.44;5160545;28;20506;-77
2022/11/07 02:30:58;;;;;;;4.88;2.40;;;;;;;9.64;100.00;100072.44;5160578;28;20046;-74
2022/11/07 02:33:29;;;;;;;6.25;2.50;;;;;;;9.65;100.00;100068.94;5161549;28;20030;-77
2022/11/07 02:35:59;;;;;;;4.97;2.22;;;;;;;9.72;100.00;100075.59;5162103;28;20069;-76
2022/11/07 02:38:33;;;;;;;6.38;2.20;;;;;;;9.66;100.00;100071.47;5161690;28;20407;-76
2022/11/07 02:41:17;;;;;;;3.60;2.08;;;;;;;9.71;100.00;100073.88;5158449;28;20365;-77
2022/11/07 02:43:53;;;;;;;4.47;2.20;;;;;;;9.81;100.00;100075.22;5162266;28;20488;-77
2022/11/07 02:46:25;;;;;;;6.55;2.30;;;;;;;9.80;100.00;100079.59;5160779;28;20485;-77
2022/11/07 02:48:57;;;;;;;6.30;2.28;;;;;;;9.79;100.00;100074.44;5161969;28;20084;-77
2022/11/07 02:51:28;;;;;;;4.85;2.13;;;;;;;9.75;100.00;100071.09;5162129;28;20022;-77
2022/11/07 02:53:58;;;;;;;5.55;2.00;;;;;;;9.79;100.00;100082.28;5162114;28;20042;-77
2022/11/07 02:56:28;;;;;;;3.53;1.95;;;;;;;9.77;100.00;100077.09;5160116;28;20037;-76
2022/11/07 02:58:59;;;;;;;4.88;1.88;;;;;;;9.77;100.00;100084.94;5161024;28;20500;-77
2022/11/07 03:01:29;;;;;;;5.80;2.50;;;;;;;9.74;100.00;100078.97;5161352;28;20033;-77
2022/11/07 03:03:59;;;;;;;6.45;2.05;;;;;;;9.79;100.00;100083.09;5176879;28;20026;-76
2022/11/07 03:06:30;;;;;;;4.45;1.80;;;;;;;9.78;100.00;100080.53;5161057;28;20113;-77
2022/11/07 03:09:00;;;;;;;4.75;2.08;;;;;;;9.79;100.00;100087.50;5160657;28;20068;-77
2022/11/07 03:11:31;;;;;;;3.28;1.73;;;;;;;9.84;100.00;100088.97;5161871;28;20498;-77
2022/11/07 03:14:01;;;;;;;5.57;1.90;;;;;;;9.94;100.00;100076.41;5157582;28;20113;-77
2022/11/07 03:16:31;;;;;;;4.72;1.90;;;;;;;9.97;100.00;100082.34;5160453;28;20452;-77
2022/11/07 03:19:02;;;;;;;3.38;1.88;;;;;;;10.03;100.00;100087.34;5161532;28;20022;-77
2022/11/07 03:21:32;;;;;;;4.15;1.90;;;;;;;10.14;100.00;100094.78;5160852;28;20106;-77
2022/11/07 03:24:02;;;;;;;5.43;1.95;;;;;;;10.04;100.00;100083.84;5160487;28;20064;-77
2022/11/07 03:26:33;;;;;;;4.18;1.70;;;;;;;10.08;100.00;100076.72;5160312;28;20030;-77
2022/11/07 03:29:03;;;;;;;4.35;1.60;;;;;;;10.13;100.00;100082.63;5159238;28;20396;-77
2022/11/07 03:31:33;;;;;;;4.15;1.70;;;;;;;10.19;100.00;100084.97;5159628;28;20101;-77
2022/11/07 03:34:04;;;;;;;3.22;1.60;;;;;;;10.24;100.00;100088.22;5159207;28;20031;-77
2022/11/07 03:36:34;;;;;;;4.03;1.40;;;;;;;10.26;100.00;100089.88;5159185;28;20107;-77
2022/11/07 03:39:04;;;;;;;2.90;1.60;;;;;;;10.16;100.00;100085.94;5160283;28;20088;-77
2022/11/07 03:41:34;;;;;;;3.60;1.67;;;;;;;10.19;100.00;100082.38;5159975;28;20030;-76
2022/11/07 03:44:05;;;;;;;6.88;2.00;;;;;;;10.28;100.00;100088.03;5160081;28;20408;-77
2022/11/07 03:46:35;;;;;;;5.47;2.13;;;;;;;10.26;100.00;100091.63;5158960;28;20194;-77
2022/11/07 03:49:07;;;;;;;3.90;1.63;;;;;;;10.26;100.00;100094.25;5159266;28;20034;-77
2022/11/07 03:51:37;;;;;;;3.20;1.45;;;;;;;10.19;100.00;100091.03;5160008;28;20105;-77
2022/11/07 03:54:07;;;;;;;7.25;3.80;;;;;;;10.17;100.00;100092.03;5160499;28;20109;-77
2022/11/07 03:56:38;;;;;;;4.90;1.80;;;;;;;10.27;100.00;100095.94;5160167;28;20089;-77
2022/11/07 03:59:08;;;;;;;3.40;1.80;;;;;;;10.24;100.00;100099.53;5160031;28;20424;-77
2022/11/07 04:01:39;;;;;;;5.30;1.55;;;;;;;10.25;100.00;100095.16;5159536;28;20049;-77
2022/11/07 04:04:09;;;;;;;4.80;1.58;;;;;;;10.30;100.00;100107.09;5159640;28;20042;-77
2022/11/07 04:06:39;;;;;;;4.68;1.50;;;;;;;10.25;100.00;100103.84;5159259;28;20026;-77
2022/11/07 04:09:09;;;;;;;4.38;1.50;;;;;;;10.25;100.00;100108.22;5159214;28;20064;-77
2022/11/07 04:17:18;;;;;;;4.32;1.45;;;;;;;10.29;100.00;100105.41;5157002;28;20045;-77
2022/11/07 04:19:56;;;;;;;3.08;1.50;;;;;;;10.40;100.00;100103.22;5157716;28;20365;-77
2022/11/07 04:22:26;;;;;;;3.60;1.33;;;;;;;10.35;100.00;100106.94;5159713;28;20054;-77
2022/11/07 04:24:56;;;;;;;5.25;1.70;;;;;;;10.34;100.00;100111.28;5173933;28;20083;-77
2022/11/07 04:27:41;;;;;;;3.83;1.20;;;;;;;10.38;100.00;100104.19;5159065;28;20124;-77
2022/11/07 04:30:18;;;;;;;4.23;1.37;;;;;;;10.24;100.00;100111.75;5158771;28;20046;-77
2022/11/07 04:32:51;;;;;;;3.00;1.30;;;;;;;10.28;100.00;100118.53;5159576;28;20321;-76
2022/11/07 04:35:24;;;;;;;5.05;1.48;;;;;;;10.38;100.00;100122.47;5158844;28;20060;-77
2022/11/07 04:37:54;;;;;;;5.38;1.65;;;;;;;10.36;100.00;100100.78;5157798;28;20124;-77
2022/11/07 04:40:26;;;;;;;3.13;1.20;;;;;;;10.32;100.00;100107.06;5158507;28;20127;-77
2022/11/07 04:42:56;;;;;;;6.30;1.90;;;;;;;10.30;100.00;100114.94;5158475;28;20507;-77
2022/11/07 04:45:26;;;;;;;4.20;1.45;;;;;;;10.19;100.00;100108.47;5159449;28;20176;-77
2022/11/07 04:47:56;;;;;;;5.55;1.13;;;;;;;10.18;100.00;100112.84;5158289;28;20423;-77
2022/11/07 04:50:27;;;;;;;4.97;1.20;;;;;;;10.08;100.00;100110.66;5158703;28;20037;-77
2022/11/07 04:52:57;;;;;;;4.50;1.55;;;;;;;10.11;100.00;100124.47;5158451;28;20204;-76
2022/11/07 04:55:30;;;;;;;3.15;1.30;;;;;;;10.06;100.00;100122.94;5158394;28;20022;-75
2022/11/07 04:58:00;;;;;;;2.83;1.42;;;;;;;10.04;100.00;100124.75;5158020;28;20176;-77
2022/11/07 05:00:31;;;;;;;3.70;1.50;;;;;;;10.09;100.00;100133.25;5159218;28;20112;-77
2022/11/07 05:03:01;;;;;;;3.88;1.30;;;;;;;10.10;100.00;100140.16;5140250;28;20038;-76
2022/11/07 05:05:32;;;;;;;2.42;1.20;;;;;;;10.12;100.00;100138.34;5158891;28;20495;-77
2022/11/07 05:08:02;;;;;;;3.20;1.38;;;;;;;10.21;100.00;100138.84;5158292;28;20085;-76
2022/11/07 05:10:33;;;;;;;4.18;1.20;;;;;;;10.19;100.00;100140.66;5159289;28;20538;-77
2022/11/07 05:13:03;;;;;;;5.53;1.35;;;;;;;10.24;100.00;100140.47;5159110;28;20042;-77
2022/11/07 05:15:34;;;;;;;2.53;1.20;;;;;;;10.33;100.00;100142.72;5158062;28;20033;-76
2022/11/07 05:18:04;;;;;;;6.07;1.50;;;;;;;10.40;100.00;100141.53;5158746;28;20145;-77
2022/11/07 05:20:37;;;;;;;3.08;1.25;;;;;;;10.33;100.00;100140.94;5157283;28;20015;-77
2022/11/07 05:23:10;;;;;;;3.38;1.30;;;;;;;10.34;100.00;100145.25;5156966;28;20042;-77
2022/11/07 05:25:46;;;;;;;2.60;1.20;;;;;;;10.30;100.00;100143.69;5158021;28;20037;-77
2022/11/07 05:28:27;;;;;;;5.10;1.60;;;;;;;10.38;100.00;100145.97;5158133;28;20265;-77
2022/11/07 05:30:59;;;;;;;4.15;1.35;;;;;;;10.36;100.00;100150.41;5154300;28;20117;-77
2022/11/07 05:33:30;;;;;;;2.95;1.20;;;;;;;10.30;100.00;100137.59;5158840;28;20088;-77
2022/11/07 05:36:15;;;;;;;3.78;1.20;;;;;;;10.25;100.00;100139.53;5162675;28;20034;-76
2022/11/07 05:38:48;;;;;;;5.32;1.30;;;;;;;10.25;100.00;100136.94;5162584;28;20487;-77
2022/11/07 05:41:20;;;;;;;2.20;1.10;;;;;;;10.30;100.00;100134.97;5162866;28;20096;-76
2022/11/07 05:43:51;;;;;;;3.30;1.30;;;;;;;10.23;100.00;100130.94;5163377;28;20033;-77
2022/11/07 05:46:21;;;;;;;5.53;1.50;;;;;;;10.23;100.00;100136.16;5163093;28;20527;-76
2022/11/07 05:48:51;;;;;;;3.33;1.27;;;;;;;10.21;100.00;100138.84;5162566;28;20025;-77
2022/11/07 05:51:22;;;;;;;2.05;0.90;;;;;;;10.29;100.00;100134.16;5162779;28;20026;-77
2022/11/07 05:53:52;;;;;;;2.72;1.25;;;;;;;10.21;100.00;100137.97;5162884;28;20062;-76
2022/11/07 05:56:22;;;;;;;3.67;1.08;;;;;;;10.20;100.00;100136.28;5162207;28;20122;-77
2022/11/07 05:58:52;;;;;;;5.32;1.50;;;;;;;10.21;100.00;100138.84;5162733;28;20034;-77
2022/11/07 06:01:22;;;;;;;4.17;1.17;;;;;;;10.03;100.00;100143.94;5162693;28;20591;-77
2022/11/07 06:03:53;;;;;;;3.97;1.15;;;;;;;10.08;100.00;100139.38;5159353;28;20803;-77
2022/11/07 06:06:23;;;;;;;4.60;1.20;;;;;;;10.08;100.00;100149.81;5161004;28;20417;-77
2022/11/07 06:08:53;;;;;;;2.60;1.10;;;;;;;10.11;100.00;100145.34;5177303;28;20782;-77
2022/11/07 06:11:24;;;;;;;2.40;0.95;;;;;;;10.16;100.00;100129.50;5162318;28;20026;-77
2022/11/07 06:13:54;;;;;;;3.05;1.13;;;;;;;10.07;100.00;100145.53;5163083;28;20119;-77
2022/11/07 06:16:26;;;;;;;3.97;1.27;;;;;;;10.05;100.00;100139.50;5160300;28;20065;-77
2022/11/07 06:18:56;;;;;;;3.50;1.20;;;;;;;10.09;100.00;100151.53;5162530;28;20028;-76
2022/11/07 06:21:26;;;;;;;1.88;1.00;;;;;;;10.00;100.00;100152.72;5162365;28;20018;-77
2022/11/07 06:23:58;;;;;;;4.20;0.90;;;;;;;10.05;100.00;100156.03;5163061;28;20026;-77
2022/11/07 06:26:28;;;;;;;6.85;1.35;;;;;;;10.04;100.00;100166.53;5162159;28;20093;-76
2022/11/07 06:28:58;;;;;;;3.55;1.00;;;;;;;10.07;100.00;100163.78;5162353;28;20030;-77
2022/11/07 06:31:28;;;;;;;2.63;1.08;;;;;;;10.13;100.00;100168.78;5162095;28;20030;-77
2022/11/07 06:33:59;;;;;;;3.65;1.50;;;;;;;10.05;100.00;100178.69;5162986;28;20049;-77
2022/11/07 06:36:29;;;;;;;3.65;1.05;;;;;;;10.08;100.00;100184.63;5162206;28;20034;-76
2022/11/07 06:38:59;;;;;;;3.80;1.00;;;;;;;10.18;100.00;100179.91;5160672;28;20054;-75
2022/11/07 06:41:30;;;;;;;3.85;1.10;;;;;;;10.11;100.00;100183.63;5159329;28;20026;-77
2022/11/07 06:44:00;;;;;;;3.35;1.20;;;;;;;10.08;100.00;100184.63;5176030;28;20088;-77
2022/11/07 06:46:30;;;;;;;3.47;1.10;;;;;;;10.05;100.00;100186.50;5161627;28;20460;-77
2022/11/07 06:49:00;;;;;;;7.68;1.30;;;;;;;9.98;100.00;100182.41;5161271;28;20041;-77
2022/11/07 06:51:31;;;;;;;5.00;1.00;;;;;;;10.02;100.00;100197.06;5161489;28;20439;-76
2022/11/07 06:54:01;;;;;;;4.45;1.00;;;;;;;10.10;100.00;100202.81;5158229;28;20286;-77
2022/11/07 06:56:31;;;;;;;3.70;1.40;;;;;;;10.01;100.00;100205.78;5160328;28;20252;-77
2022/11/07 06:59:02;;;;;;;6.63;2.20;;;;;;;10.03;100.00;100206.59;5162134;28;20034;-77
2022/11/07 07:01:32;;;;;;;4.72;1.80;;;;;;;10.03;100.00;100212.66;5161918;28;20073;-76
2022/11/07 07:04:04;;;;;;;4.10;1.13;;;;;;;10.13;100.00;100218.41;5161740;28;20053;-76
2022/11/07 07:06:34;;;;;;;5.57;1.10;;;;;;;10.08;100.00;100210.75;5161397;28;20059;-75
2022/11/07 07:09:05;;;;;;;4.45;1.10;;;;;;;9.99;100.00;100224.09;5161216;28;20463;-75
2022/11/07 07:11:36;;;;;;;5.32;1.17;;;;;;;9.97;100.00;100222.47;5161554;28;20076;-76
2022/11/07 07:14:06;;;;;;;3.83;1.08;;;;;;;10.01;100.00;100218.84;5161893;28;20041;-76
2022/11/07 07:16:37;;;;;;;3.47;1.27;;;;;;;10.06;100.00;100216.91;5161470;28;20026;-77
2022/11/07 07:19:07;;;;;;;8.45;1.20;;;;;;;10.28;100.00;100212.53;5161957;28;20121;-77
2022/11/07 07:21:38;;;;;;;4.82;1.30;;;;;;;10.35;100.00;100214.00;5159841;28;20534;-77
2022/11/07 07:24:08;;;;;;;3.60;1.15;;;;;;;10.41;100.00;100218.97;5161849;28;20038;-76
2022/11/07 07:26:38;;;;;;;3.33;1.00;;;;;;;10.52;100.00;100222.03;5160875;28;20108;-77
2022/11/07 07:29:08;;;;;;;4.40;1.20;;;;;;;10.56;100.00;100223.59;5160124;28;20049;-77
2022/11/07 07:31:39;;;;;;;7.47;1.48;;;;;;;10.68;100.00;100228.31;5159697;28;20026;-75
2022/11/07 07:34:09;;;;;;;5.55;1.45;;;;;;;10.72;100.00;100222.03;5160984;28;20085;-76
2022/11/07 07:36:39;;;;;;;4.40;1.38;;;;;;;10.80;100.00;100220.81;5160149;28;20381;-77
2022/11/07 07:39:09;;;;;;;3.60;1.60;;;;;;;10.82;100.00;100215.53;5160862;28;20112;-76
2022/11/07 07:41:40;;;;;;;3.90;1.33;;;;;;;10.91;100.00;100226.44;5162081;28;20056;-76
2022/11/07 07:44:10;;;;;;;3.28;0.95;;;;;;;11.08;100.00;100214.31;5158688;28;20124;-77
2022/11/07 07:46:40;;;;;;;6.20;1.20;;;;;;;11.13;100.00;100212.34;5159895;28;20451;-77
2022/11/07 07:49:11;;;;;;;5.65;1.20;;;;;;;11.09;100.00;100216.03;5158678;28;20030;-77
2022/11/07 07:51:41;;;;;;;3.30;1.27;;;;;;;11.36;100.00;100220.06;5161072;28;20038;-77
2022/11/07 07:54:11;;;;;;;3.83;1.45;;;;;;;11.87;98.17;100217.72;5159499;28;20038;-76
2022/11/07 07:56:42;;;;;;;5.43;1.20;;;;;;;12.97;92.08;100215.78;5160021;28;20088;-77
2022/11/07 07:59:12;;;;;;;3.58;1.10;;;;;;;14.37;86.62;100211.59;5160802;28;20148;-77
2022/11/07 08:01:42;;;;;;;4.75;1.20;;;;;;;15.45;81.42;100206.84;5160597;28;20488;-77
2022/11/07 08:04:13;;;;;;;3.75;0.85;;;;;;;15.60;79.11;100205.91;5159976;28;20116;-76
2022/11/07 08:06:43;;;;;;;4.50;1.00;;;;;;;16.45;77.18;100204.81;5160694;28;20396;-77
2022/11/07 08:09:13;;;;;;;3.13;1.15;;;;;;;16.60;76.45;100206.47;5160038;28;20022;-77
2022/11/07 08:11:44;;;;;;;4.03;1.20;;;;;;;16.20;75.84;100202.03;5160603;28;20027;-77
2022/11/07 08:14:14;;;;;;;4.87;0.90;;;;;;;16.66;76.01;100202.53;5160697;28;20313;-77
2022/11/07 08:16:44;;;;;;;3.85;1.08;;;;;;;17.22;73.75;100195.13;5159074;28;20295;-77
2022/11/07 08:19:14;;;;;;;4.22;1.20;;;;;;;17.32;73.44;100196.22;5160545;28;20535;-77
2022/11/07 08:21:45;;;;;;;3.50;0.90;;;;;;;17.48;73.19;100202.16;5159824;28;20081;-77
2022/11/07 08:24:15;;;;;;;3.57;1.00;;;;;;;17.42;72.58;100203.44;5158884;28;20034;-77
2022/11/07 08:26:45;;;;;;;2.90;1.10;;;;;;;16.69;75.09;100203.19;5158855;28;20848;-77
2022/11/07 08:29:15;;;;;;;3.40;1.20;;;;;;;16.17;77.17;100204.00;5160102;28;20647;-77
2022/11/07 08:31:49;;;;;;;2.95;1.00;;;;;;;16.00;77.11;100210.38;5157868;28;20022;-77
2022/11/07 08:34:19;;;;;;;5.00;1.00;;;;;;;15.07;80.56;100217.97;5159813;28;20037;-77
2022/11/07 08:36:49;;;;;;;4.70;1.10;;;;;;;14.49;83.39;100224.06;5160122;28;20030;-77
2022/11/07 08:39:20;;;;;;;3.33;1.10;;;;;;;14.21;85.44;100226.53;5159010;28;20061;-77
2022/11/07 08:41:50;;;;;;;2.92;0.90;;;;;;;13.88;87.32;100223.16;5160076;28;20035;-77
2022/11/07 08:44:20;;;;;;;3.63;1.10;;;;;;;13.98;87.54;100237.47;5157791;28;20045;-77
2022/11/07 08:46:51;;;;;;;4.97;1.20;;;;;;;13.70;88.73;100232.00;5159600;28;20446;-76
2022/11/07 08:49:21;;;;;;;4.03;0.95;;;;;;;13.66;89.77;100240.97;5149453;28;20061;-77
2022/11/07 08:51:51;;;;;;;5.47;1.48;;;;;;;13.82;89.54;100226.09;5155454;28;20018;-76
2022/11/07 08:54:21;;;;;;;3.50;0.90;;;;;;;13.47;90.38;100243.75;5155137;28;20030;-77
2022/11/07 08:56:52;;;;;;;4.55;1.20;;;;;;;13.39;92.66;100239.81;5158902;28;20032;-75
2022/11/07 08:59:22;;;;;;;3.97;1.13;;;;;;;13.49;90.15;100234.00;5157948;28;20074;-77
2022/11/07 09:01:52;;;;;;;4.38;1.20;;;;;;;13.68;89.69;100241.72;5157743;28;20026;-76
2022/11/07 09:04:23;;;;;;;4.10;1.10;;;;;;;13.66;89.50;100246.22;5159743;28;20046;-76
2022/11/07 09:06:55;;;;;;;3.65;1.00;;;;;;;13.66;90.17;100233.09;5157537;28;20026;-76
2022/11/07 09:09:27;;;;;;;5.70;1.40;;;;;;;13.90;89.73;100244.94;5157924;28;20077;-76
2022/11/07 09:11:59;;;;;;;5.43;1.38;;;;;;;14.21;89.78;100237.06;5199927;22;20387;-93
2022/11/07 09:14:51;;;;;;;4.95;1.30;;;;;;;14.15;90.01;100242.63;5222895;28;20043;-92
2022/11/07 09:17:34;;;;;;;5.80;1.10;;;;;;;14.11;89.14;100251.63;5210545;28;20036;-94
2022/11/07 09:20:09;;;;;;;3.15;1.15;;;;;;;14.12;89.30;100243.63;5223467;28;20036;-94
2022/11/07 09:22:39;;;;;;;5.82;1.73;;;;;;;13.96;88.87;100241.94;5222957;28;20025;-92
2022/11/07 09:25:13;;;;;;;6.65;1.35;;;;;;;13.95;89.89;100242.88;5217620;28;20040;-94
2022/11/07 09:27:57;;;;;;;;;;;;;;;;;;;;;
2022/11/07 09:30:28;;;;;;;6.65;1.55;;;;;;;13.46;91.13;100239.41;5223372;28;20028;-93
2022/11/07 09:33:20;;;;;;;4.97;1.35;;;;;;;13.43;91.72;100243.97;5223929;28;20541;-94
2022/11/07 09:36:21;;;;;;;3.05;1.10;;;;;;;13.57;91.97;100238.84;5223598;28;20025;-94
2022/11/07 09:38:58;;;;;;;5.32;1.30;;;;;;;13.44;91.38;100235.16;5222545;28;20075;-93
2022/11/07 09:41:39;;;;;;;8.43;1.20;;;;;;;13.63;91.91;100233.25;5226091;28;20090;-93
2022/11/07 09:45:02;;;;;;;4.40;1.23;;;;;;;13.68;91.65;100244.34;5213105;28;20029;-93
2022/11/07 09:47:36;;;;;;;5.18;1.40;;;;;;;13.92;90.92;100238.63;5176061;28;20106;-93
2022/11/07 09:50:42;;;;;;;4.45;1.08;;;;;;;14.06;89.55;100243.16;5235658;28;20041;-92
2022/11/07 09:53:38;;;;;;;5.63;1.48;;;;;;;14.24;90.25;100242.16;5222231;28;20109;-93
2022/11/07 09:56:17;;;;;;;5.97;1.50;;;;;;;14.00;89.75;100244.34;5223032;28;20036;-93
2022/11/07 09:58:53;;;;;;;5.90;1.58;;;;;;;14.03;90.58;100240.66;5224358;28;20513;-92
2022/11/07 10:01:32;;;;;;;7.40;1.52;;;;;;;13.89;90.10;100238.81;5224175;28;20017;-92
2022/11/07 10:04:13;;;;;;;5.97;1.35;;;;;;;13.94;90.52;100239.41;5223816;28;20033;-93
2022/11/07 10:06:51;;;;;;;4.78;1.30;;;;;;;13.86;92.18;100238.13;5223892;28;20087;-93
2022/11/07 10:09:43;;;;;;;6.47;1.40;;;;;;;14.00;92.51;100243.47;5224738;28;20017;-93
2022/11/07 10:12:44;;;;;;;4.63;1.13;;;;;;;14.01;90.57;100240.78;5224459;28;20025;-93
2022/11/07 10:15:26;;;;;;;6.88;1.60;;;;;;;14.22;90.37;100239.63;5222287;28;20508;-93
2022/11/07 10:18:23;;;;;;;6.97;1.67;;;;;;;14.31;90.61;100240.88;5226878;28;20029;-93
2022/11/07 10:20:59;;;;;;;;;;;;;;;14.25;90.94;100241.22;5224394;28;20036;-94
2022/11/07 10:23:47;;;;;;;6.13;1.33;;;;;;;14.14;92.04;100233.06;5228240;28;19921;-94
2022/11/07 10:26:30;;;;;;;8.45;1.30;;;;;;;14.18;90.42;100237.22;5225769;28;20045;-92
2022/11/07 10:29:38;;;;;;;5.15;1.25;;;;;;;14.14;91.72;100240.94;5229661;28;20025;-94
2022/11/07 10:32:42;;;;;;;7.72;1.58;;;;;;;14.11;91.46;100238.47;5220775;28;20033;-93
2022/11/07 10:35:34;;;;;;;4.88;1.20;;;;;;;14.27;90.57;100239.38;5225764;28;20033;-94
2022/11/07 10:38:33;;;;;;;5.93;1.60;;;;;;;14.41;89.87;100239.44;5228737;28;20028;-93
2022/11/07 10:41:22;;;;;;;5.47;1.40;;;;;;;14.21;90.10;100244.94;5219941;28;20032;-94
2022/11/07 10:43:57;;;;;;;6.85;1.52;;;;;;;14.04;90.10;100242.38;5228184;28;20111;-94
2022/11/07 10:46:45;;;;;;;6.03;1.40;;;;;;;14.23;90.20;100237.84;5227750;28;20509;-93
2022/11/07 10:49:17;;;;;;;6.50;1.40;;;;;;;14.10;90.15;100236.78;5226891;28;20055;-93
2022/11/07 10:52:18;;;;;;;6.45;1.40;;;;;;;14.14;90.97;100240.94;5227317;28;20025;-93
2022/11/07 10:54:50;;;;;;;6.03;1.42;;;;;;;14.14;90.73;100251.44;5216958;28;20037;-93
2022/11/07 10:57:28;;;;;;;4.50;1.40;;;;;;;14.13;91.27;100249.75;5228156;28;20039;-93
2022/11/07 10:59:58;;;;;;;6.20;1.15;;;;;;;14.06;91.60;100262.38;5227187;28;20916;-93
2022/11/07 11:02:45;;;;;;;4.32;1.20;;;;;;;14.05;92.72;100257.22;5229160;28;20036;-94
2022/11/07 11:05:55;;;;;;;;;;;;;;;;;;;;;
2022/11/07 11:08:30;;;;;;;8.10;1.27;;;;;;;14.06;92.31;100258.94;5225097;28;20025;-92
2022/11/07 11:11:11;;;;;;;;;;;;;;;14.07;92.21;100255.38;5224508;28;20025;-93
2022/11/07 11:14:06;;;;;;;6.78;1.30;;;;;;;14.12;91.40;100248.91;5226374;28;19923;-94
2022/11/07 11:16:40;;;;;;;5.15;1.30;;;;;;;14.18;90.98;100247.75;5227393;28;20033;-93
2022/11/07 11:19:39;;;;;;;3.97;1.00;;;;;;;14.18;90.99;100251.25;5226802;28;20622;-94
2022/11/07 11:22:25;;;;;;;9.30;1.35;;;;;;;14.15;90.83;100247.88;5228449;28;20025;-93
2022/11/07 11:25:25;;;;;;;5.97;1.30;;;;;;;14.14;91.90;100261.97;5226379;28;20066;-94
2022/11/07 11:28:04;;;;;;;5.00;1.35;;;;;;;13.98;91.75;100251.47;5221269;28;20050;-94
2022/11/07 11:30:41;;;;;;;5.50;1.52;;;;;;;14.01;91.41;100253.03;5225357;28;20051;-93
2022/11/07 11:33:21;;;;;;;7.18;1.70;;;;;;;13.94;92.09;100256.94;5224895;28;20099;-94
2022/11/07 11:36:03;;;;;;;4.72;1.35;;;;;;;13.89;93.60;100272.13;5225639;28;20588;-93
2022/11/07 11:38:40;;;;;;;9.00;1.80;;;;;;;13.76;93.90;100261.41;5226465;28;20045;-93
2022/11/07 11:41:35;;;;;;;5.03;1.42;;;;;;;13.72;94.89;100261.69;5225263;28;20029;-94
2022/11/07 11:44:20;;;;;;;4.80;1.38;;;;;;;13.84;94.38;100255.75;5224160;28;20518;-93
2022/11/07 11:47:43;;;;;;;4.88;1.40;;;;;;;13.96;93.59;100247.22;5225159;28;20055;-93
2022/11/07 11:50:30;;;;;;;6.90;1.63;;;;;;;14.08;93.43;100246.53;5118440;28;20030;-94
2022/11/07 11:53:35;;;;;;;5.05;1.60;;;;;;;14.07;94.70;100244.84;5220565;28;20041;-94
2022/11/07 11:56:46;;;;;;;8.65;2.25;;;;;;;14.07;93.51;100244.84;5211045;28;20045;-94
2022/11/07 11:59:41;;;;;;;4.82;1.50;;;;;;;14.04;93.22;100251.13;5226833;28;20025;-93
2022/11/07 12:02:41;;;;;;;7.45;2.13;;;;;;;14.10;94.25;100240.25;5213662;28;20020;-93
2022/11/07 12:05:33;;;;;;;6.03;1.67;;;;;;;14.30;94.35;100240.06;5223431;28;20089;-93
2022/11/07 12:08:35;;;;;;;8.25;1.85;;;;;;;14.37;93.33;100237.91;5224186;28;20623;-93
2022/11/07 12:11:39;;;;;;;5.90;1.48;;;;;;;14.56;92.95;100233.31;5213897;28;20041;-93